createdAt,value
2019-04-01T00:02:14.508Z,14.40
2019-04-01T00:07:44.301Z,15.03
2019-04-01T00:13:14.035Z,14.23
2019-04-01T00:18:43.699Z,15.53
2019-04-01T00:24:13.424Z,15.50
2019-04-01T00:29:43.135Z,15.27
2019-04-01T00:35:16.234Z,14.80
2019-04-01T00:40:46.008Z,16.47
2019-04-01T00:46:16.938Z,15.97
2019-04-01T00:51:46.478Z,14.67
2019-04-01T00:57:16.228Z,13.80
2019-04-01T01:02:45.970Z,14.87
2019-04-01T01:08:15.708Z,16.10
2019-04-01T01:13:45.045Z,14.60
2019-04-01T01:19:14.445Z,14.60
2019-04-01T01:24:43.798Z,17.00
2019-04-01T01:30:14.665Z,15.83
2019-04-01T01:35:44.055Z,14.00
2019-04-01T01:41:13.484Z,14.80
2019-04-01T01:46:48.673Z,16.37
2019-04-01T01:52:19.002Z,16.33
2019-04-01T01:57:48.394Z,16.80
2019-04-01T02:03:17.811Z,16.50
2019-04-01T02:08:49.363Z,18.93
2019-04-01T02:14:18.684Z,19.80
2019-04-01T02:19:48.071Z,18.50
2019-04-01T02:25:17.575Z,18.37
2019-04-01T02:30:46.905Z,19.47
2019-04-01T02:36:16.342Z,19.37
2019-04-01T02:41:45.714Z,19.40
2019-04-01T02:47:15.000Z,19.57
2019-04-01T02:52:44.355Z,19.73
2019-04-01T02:58:13.700Z,20.43
2019-04-01T03:03:43.022Z,22.27
2019-04-01T03:09:12.366Z,21.70
2019-04-01T03:14:41.741Z,24.03
2019-04-01T03:20:11.300Z,22.77
2019-04-01T03:25:40.753Z,22.50
2019-04-01T03:31:10.088Z,23.97
2019-04-01T03:36:39.480Z,23.60
2019-04-01T03:42:08.825Z,24.03
2019-04-01T03:47:38.227Z,23.93
2019-04-01T03:53:07.563Z,25.70
2019-04-01T03:58:36.870Z,25.70
2019-04-01T04:04:06.324Z,25.33
2019-04-01T04:09:35.642Z,28.30
2019-04-01T04:15:06.849Z,27.50
2019-04-01T04:20:36.372Z,27.17
2019-04-01T04:26:06.209Z,30.73
2019-04-01T04:31:35.770Z,33.47
2019-04-01T04:37:05.355Z,35.00
2019-04-01T04:42:34.825Z,36.00
2019-04-01T04:48:04.332Z,40.70
2019-04-01T04:53:35.145Z,38.50
2019-04-01T04:59:06.788Z,39.37
2019-04-01T05:04:36.327Z,38.97
2019-04-01T05:10:08.239Z,36.30
2019-04-01T05:15:37.810Z,38.87
2019-04-01T05:21:07.452Z,40.53
2019-04-01T05:26:37.902Z,39.40
2019-04-01T05:32:08.254Z,37.87
2019-04-01T05:37:40.704Z,40.63
2019-04-01T05:43:10.877Z,38.90
2019-04-01T05:48:46.581Z,39.93
2019-04-01T05:54:16.043Z,38.00
2019-04-01T05:59:45.616Z,37.30
2019-04-01T06:05:15.091Z,40.37
2019-04-01T06:10:45.558Z,38.20
2019-04-01T06:16:15.137Z,35.73
2019-04-01T06:21:44.615Z,33.53
2019-04-01T06:27:14.166Z,39.57
2019-04-01T06:32:43.635Z,36.07
2019-04-01T06:38:13.066Z,34.20
2019-04-01T06:43:42.556Z,33.63
2019-04-01T06:49:11.919Z,35.13
2019-04-01T06:54:41.424Z,34.10
2019-04-01T07:00:11.689Z,34.80
2019-04-01T07:05:41.118Z,34.17
2019-04-01T07:11:10.588Z,33.50
2019-04-01T07:16:40.306Z,32.10
2019-04-01T07:22:09.792Z,33.73
2019-04-01T07:27:39.437Z,33.37
2019-04-01T07:33:08.983Z,30.67
2019-04-01T07:38:38.450Z,29.90
2019-04-01T07:44:07.959Z,31.40
2019-04-01T07:49:37.371Z,33.37
2019-04-01T07:55:08.865Z,32.90
2019-04-01T08:00:38.346Z,31.73
2019-04-01T08:06:07.757Z,30.60
2019-04-01T08:11:37.229Z,27.47
2019-04-01T08:17:06.739Z,27.70
2019-04-01T08:22:36.552Z,26.60
2019-04-01T08:28:06.166Z,28.57
2019-04-01T08:33:38.522Z,26.63
2019-04-01T08:39:13.722Z,26.37
2019-04-01T08:44:43.151Z,27.10
2019-04-01T08:50:12.946Z,25.80
2019-04-01T08:55:42.370Z,27.03
2019-04-01T09:01:11.850Z,28.10
2019-04-01T09:06:41.328Z,28.70
2019-04-01T09:12:10.874Z,28.97
2019-04-01T09:17:40.745Z,28.80
2019-04-01T09:23:10.325Z,26.20
2019-04-01T09:28:39.677Z,26.90
2019-04-01T09:34:09.064Z,27.70
2019-04-01T09:39:39.493Z,27.37
2019-04-01T09:45:09.850Z,27.23
2019-04-01T09:50:39.263Z,27.40
2019-04-01T09:56:08.666Z,25.83
2019-04-01T10:01:38.212Z,28.93
2019-04-01T10:07:07.804Z,28.63
2019-04-01T10:12:37.176Z,29.60
2019-04-01T10:18:06.745Z,26.43
2019-04-01T10:23:36.224Z,28.43
2019-04-01T10:29:05.712Z,27.47
2019-04-01T10:34:35.296Z,28.60
2019-04-01T10:40:07.746Z,28.67
2019-04-01T10:45:37.182Z,28.03
2019-04-01T10:51:06.629Z,27.10
2019-04-01T10:56:36.262Z,29.57
2019-04-01T11:02:05.882Z,27.73
2019-04-01T11:07:35.364Z,27.27
2019-04-01T11:13:04.753Z,26.30
2019-04-01T11:18:34.426Z,27.97
2019-04-01T11:24:07.451Z,27.43
2019-04-01T11:29:35.469Z,25.70
2019-04-01T11:35:06.814Z,27.07
2019-04-01T11:40:38.767Z,25.33
2019-04-01T11:46:07.838Z,25.40
2019-04-01T11:51:39.989Z,23.53
2019-04-01T11:57:08.657Z,23.83
2019-04-01T12:02:38.053Z,23.63
2019-04-01T12:08:07.445Z,24.27
2019-04-01T12:13:36.865Z,24.07
2019-04-01T12:19:06.275Z,22.97
2019-04-01T12:24:35.752Z,21.40
2019-04-01T12:30:06.470Z,21.90
2019-04-01T12:35:36.980Z,22.77
2019-04-01T12:41:06.460Z,22.03
2019-04-01T12:46:36.174Z,22.00
2019-04-01T12:52:05.739Z,21.53
2019-04-01T12:57:35.124Z,21.20
2019-04-01T13:03:04.778Z,20.07
2019-04-01T13:08:34.260Z,20.80
2019-04-01T13:14:04.597Z,20.43
2019-04-01T13:19:33.924Z,21.70
2019-04-01T13:25:05.622Z,20.37
2019-04-01T13:30:34.543Z,21.77
2019-04-01T13:36:07.580Z,20.33
2019-04-01T13:41:42.366Z,18.90
2019-04-01T13:47:06.530Z,19.73
2019-04-01T13:52:35.879Z,18.20
2019-04-01T13:58:05.572Z,19.60
2019-04-01T14:03:35.200Z,19.20
2019-04-01T14:09:07.384Z,19.23
2019-04-01T14:14:37.080Z,18.63
2019-04-01T14:20:07.147Z,18.40
2019-04-01T14:25:37.526Z,19.00
2019-04-01T14:31:06.946Z,17.50
2019-04-01T14:36:37.911Z,15.70
2019-04-01T14:42:08.732Z,16.93
2019-04-01T14:47:55.631Z,17.57
2019-04-01T14:53:10.160Z,16.67
2019-04-01T14:58:39.838Z,15.23
2019-04-01T15:04:09.177Z,16.33
2019-04-01T15:09:38.658Z,16.83
2019-04-01T15:15:09.377Z,15.70
2019-04-01T15:20:38.927Z,16.53
2019-04-01T15:26:08.635Z,16.10
2019-04-01T15:31:38.252Z,16.47
2019-04-01T15:37:08.094Z,17.20
2019-04-01T15:42:38.933Z,17.93
2019-04-01T15:48:09.357Z,16.37
2019-04-01T15:54:01.348Z,16.07
2019-04-01T15:59:31.596Z,16.33
2019-04-01T16:05:01.769Z,17.03
2019-04-01T16:10:31.291Z,16.40
2019-04-01T16:16:01.207Z,15.97
2019-04-01T16:21:31.493Z,16.43
2019-04-01T16:27:01.503Z,15.90
2019-04-01T16:32:31.476Z,15.37
2019-04-01T16:38:01.053Z,15.13
2019-04-01T16:43:31.537Z,16.60
2019-04-01T16:49:02.274Z,16.17
2019-04-01T16:54:34.996Z,16.27
2019-04-01T17:00:17.505Z,16.47
2019-04-01T17:05:47.279Z,15.60
2019-04-01T17:11:18.161Z,16.00
2019-04-01T17:16:47.701Z,16.83
2019-04-01T17:22:17.409Z,16.17
2019-04-01T17:27:46.859Z,15.37
2019-04-01T17:33:17.364Z,17.53
2019-04-01T17:38:48.286Z,16.30
2019-04-01T17:44:18.431Z,16.70
2019-04-01T17:49:50.412Z,17.83
2019-04-01T17:55:21.709Z,17.47
2019-04-01T18:00:53.527Z,16.70
2019-04-01T18:06:23.071Z,17.20
2019-04-01T18:11:52.968Z,19.20
2019-04-01T18:17:22.512Z,17.53
2019-04-01T18:22:52.257Z,17.20
2019-04-01T18:28:21.785Z,18.30
2019-04-01T18:33:56.335Z,19.23
2019-04-01T18:39:48.438Z,20.27
2019-04-01T18:45:18.417Z,18.87
2019-04-01T18:50:50.170Z,19.40
2019-04-01T18:56:21.378Z,17.97
2019-04-01T19:01:51.417Z,19.00
2019-04-01T19:07:22.356Z,17.50
2019-04-01T19:13:04.706Z,16.87
2019-04-01T19:18:41.900Z,16.77
2019-04-01T19:24:11.274Z,16.40
2019-04-01T19:29:42.876Z,15.57
2019-04-01T19:35:12.488Z,16.20
2019-04-01T19:40:41.799Z,18.03
2019-04-01T19:46:12.037Z,17.60
2019-04-01T19:51:41.336Z,16.70
2019-04-01T19:57:13.295Z,15.53
2019-04-01T20:03:02.245Z,16.57
2019-04-01T20:08:31.700Z,17.43
2019-04-01T20:14:01.782Z,17.03
2019-04-01T20:19:31.500Z,22.20
2019-04-01T20:25:01.029Z,17.67
2019-04-01T20:30:30.666Z,17.60
2019-04-01T20:36:00.174Z,16.57
2019-04-01T20:41:29.847Z,17.93
2019-04-01T20:47:00.444Z,16.77
2019-04-01T20:52:30.309Z,17.77
2019-04-01T20:58:00.289Z,16.50
2019-04-01T21:03:30.296Z,16.37
2019-04-01T21:09:00.200Z,14.70
2019-04-01T21:14:29.875Z,16.07
2019-04-01T21:19:59.405Z,14.50
2019-04-01T21:25:30.039Z,16.50
2019-04-01T21:31:00.900Z,14.67
2019-04-01T21:36:32.151Z,16.73
2019-04-01T21:42:01.644Z,16.23
2019-04-01T21:47:31.157Z,16.03
2019-04-01T21:53:01.225Z,15.93
2019-04-01T21:58:31.533Z,15.30
2019-04-01T22:04:01.072Z,14.73
2019-04-01T22:09:30.795Z,17.17
2019-04-01T22:15:00.387Z,16.37
2019-04-01T22:20:29.918Z,15.73
2019-04-01T22:25:59.518Z,17.20
2019-04-01T22:31:29.069Z,19.10
2019-04-01T22:36:58.447Z,16.37
2019-04-01T22:42:27.850Z,16.40
2019-04-01T22:47:57.332Z,16.93
2019-04-01T22:53:26.902Z,15.60
2019-04-01T22:58:56.423Z,16.60
2019-04-01T23:04:26.045Z,16.87
2019-04-01T23:09:55.474Z,15.47
2019-04-01T23:15:25.006Z,16.10
2019-04-01T23:20:54.632Z,15.57
2019-04-01T23:26:24.054Z,16.17
2019-04-01T23:31:59.398Z,17.20
2019-04-01T23:37:29.032Z,16.13
2019-04-01T23:42:58.560Z,18.93
2019-04-01T23:48:28.202Z,17.00
2019-04-01T23:53:57.708Z,17.30
2019-04-01T23:59:27.131Z,17.40
